createdAt,value
2019-03-11T00:03:32.526Z,4.49
2019-03-11T00:08:40.169Z,4.07
2019-03-11T00:13:47.849Z,3.73
2019-03-11T00:18:55.588Z,3.90
2019-03-11T00:24:03.200Z,4.52
2019-03-11T00:29:10.896Z,4.05
2019-03-11T00:34:18.509Z,4.55
2019-03-11T00:39:26.206Z,4.56
2019-03-11T00:44:33.832Z,5.60
2019-03-11T00:49:41.526Z,4.52
2019-03-11T00:54:49.208Z,5.29
2019-03-11T00:59:56.880Z,4.33
2019-03-11T01:05:04.575Z,4.58
2019-03-11T01:10:12.263Z,5.72
2019-03-11T01:15:19.968Z,4.38
2019-03-11T01:20:27.632Z,4.59
2019-03-11T01:25:35.329Z,5.63
2019-03-11T01:30:43.012Z,4.21
2019-03-11T01:35:50.713Z,4.69
2019-03-11T01:40:58.318Z,4.53
2019-03-11T01:46:06.002Z,4.74
2019-03-11T01:51:13.615Z,5.08
2019-03-11T01:56:21.312Z,4.16
2019-03-11T02:01:28.952Z,3.49
2019-03-11T02:06:36.645Z,3.24
2019-03-11T02:11:44.344Z,3.15
2019-03-11T02:16:52.020Z,2.79
2019-03-11T02:21:59.713Z,2.96
2019-03-11T02:27:07.396Z,2.65
2019-03-11T02:32:15.099Z,2.67
2019-03-11T02:37:22.769Z,2.72
2019-03-11T02:42:30.413Z,3.31
2019-03-11T02:47:38.104Z,3.15
2019-03-11T02:52:45.740Z,3.21
2019-03-11T02:57:53.403Z,4.24
2019-03-11T03:03:01.009Z,4.60
2019-03-11T03:08:08.803Z,4.73
2019-03-11T03:13:16.409Z,3.75
2019-03-11T03:18:24.046Z,3.86
2019-03-11T03:23:31.657Z,3.24
2019-03-11T03:28:39.319Z,2.64
2019-03-11T03:33:46.925Z,2.24
2019-03-11T03:38:54.880Z,2.89
2019-03-11T03:44:02.509Z,3.07
2019-03-11T03:49:10.173Z,2.52
2019-03-11T03:54:17.835Z,2.95
2019-03-11T03:59:25.483Z,2.43
2019-03-11T04:04:33.118Z,2.33
2019-03-11T04:09:40.924Z,2.38
2019-03-11T04:14:48.524Z,2.70
2019-03-11T04:19:56.226Z,2.42
2019-03-11T04:25:03.902Z,2.80
2019-03-11T04:30:11.640Z,2.07
2019-03-11T04:35:19.333Z,2.29
2019-03-11T04:40:27.104Z,2.08
2019-03-11T04:45:34.756Z,2.48
2019-03-11T04:50:42.444Z,2.24
2019-03-11T04:55:50.116Z,2.85
2019-03-11T05:00:57.803Z,2.32
2019-03-11T05:06:05.476Z,2.34
2019-03-11T05:11:13.165Z,2.52
2019-03-11T05:16:20.847Z,2.26
2019-03-11T05:21:28.622Z,2.39
2019-03-11T05:26:36.308Z,2.03
2019-03-11T05:31:44.093Z,1.99
2019-03-11T05:36:51.760Z,2.18
2019-03-11T05:41:59.445Z,2.20
2019-03-11T05:47:07.120Z,2.37
2019-03-11T05:52:15.037Z,3.10
2019-03-11T05:57:22.699Z,2.77
2019-03-11T06:02:30.384Z,2.17
2019-03-11T06:07:38.074Z,1.99
2019-03-11T06:12:45.790Z,2.84
2019-03-11T06:17:53.471Z,2.09
2019-03-11T06:23:01.144Z,2.15
2019-03-11T06:28:08.828Z,2.52
2019-03-11T06:33:16.485Z,2.38
2019-03-11T06:38:24.224Z,2.98
2019-03-11T06:43:31.930Z,2.58
2019-03-11T06:48:39.629Z,2.73
2019-03-11T06:53:47.300Z,2.96
2019-03-11T06:58:55.024Z,2.77
2019-03-11T07:04:02.625Z,2.98
2019-03-11T07:09:10.289Z,3.10
2019-03-11T07:14:17.884Z,3.13
2019-03-11T07:19:25.649Z,3.78
2019-03-11T07:24:33.284Z,3.47
2019-03-11T07:29:41.060Z,3.24
2019-03-11T07:34:48.672Z,3.27
2019-03-11T07:39:56.341Z,3.42
2019-03-11T07:45:03.976Z,2.86
2019-03-11T07:50:11.616Z,3.73
2019-03-11T07:55:19.392Z,2.96
2019-03-11T08:00:27.036Z,3.80
2019-03-11T08:05:34.689Z,3.57
2019-03-11T08:10:42.382Z,3.82
2019-03-11T08:15:50.020Z,3.47
2019-03-11T08:20:57.669Z,3.17
2019-03-11T08:26:05.343Z,3.42
2019-03-11T08:31:13.081Z,3.64
2019-03-11T08:36:20.693Z,3.17
2019-03-11T08:41:28.392Z,3.87
2019-03-11T08:46:36.010Z,3.14
2019-03-11T08:51:43.696Z,3.28
2019-03-11T08:56:51.344Z,3.45
2019-03-11T09:01:59.032Z,3.36
2019-03-11T09:07:06.664Z,3.35
2019-03-11T09:12:14.336Z,4.45
2019-03-11T09:17:21.957Z,2.97
2019-03-11T09:22:29.656Z,3.27
2019-03-11T09:27:37.312Z,3.63
2019-03-11T09:32:45.018Z,3.12
2019-03-11T09:37:52.622Z,3.22
2019-03-11T09:43:00.300Z,3.34
2019-03-11T09:48:08.009Z,3.03
2019-03-11T09:53:15.665Z,3.05
2019-03-11T09:58:23.376Z,3.27
2019-03-11T10:03:31.050Z,3.22
2019-03-11T10:08:38.736Z,3.01
2019-03-11T10:13:46.700Z,2.93
2019-03-11T10:18:54.419Z,3.23
2019-03-11T10:24:02.089Z,3.40
2019-03-11T10:29:09.771Z,2.56
2019-03-11T10:34:17.460Z,3.05
2019-03-11T10:39:25.185Z,3.84
2019-03-11T10:44:32.861Z,2.85
2019-03-11T10:49:40.577Z,3.04
2019-03-11T10:54:48.248Z,3.03
2019-03-11T10:59:55.992Z,2.79
2019-03-11T11:05:03.657Z,2.98
2019-03-11T11:10:11.600Z,3.21
2019-03-11T11:15:19.228Z,2.93
2019-03-11T11:20:26.959Z,2.24
2019-03-11T11:25:34.639Z,2.26
2019-03-11T11:30:42.408Z,2.14
2019-03-11T11:35:50.095Z,1.85
2019-03-11T11:40:57.788Z,2.43
2019-03-11T11:46:05.473Z,2.21
2019-03-11T11:51:13.198Z,2.47
2019-03-11T11:56:20.808Z,1.93
2019-03-11T12:01:28.826Z,2.34
2019-03-11T12:06:36.488Z,2.26
2019-03-11T12:11:44.371Z,1.93
2019-03-11T12:16:51.996Z,2.37
2019-03-11T12:21:59.759Z,2.32
2019-03-11T12:27:07.419Z,2.09
2019-03-11T12:32:15.309Z,2.05
2019-03-11T12:37:22.993Z,2.16
2019-03-11T12:42:30.640Z,1.71
2019-03-11T12:47:38.336Z,1.69
2019-03-11T12:52:46.069Z,1.95
2019-03-11T12:57:53.734Z,1.90
2019-03-11T13:03:01.734Z,2.51
2019-03-11T13:08:09.418Z,2.08
2019-03-11T13:13:19.036Z,2.27
2019-03-11T13:18:24.788Z,2.77
2019-03-11T13:23:31.515Z,2.76
2019-03-11T13:28:39.228Z,2.41
2019-03-11T13:33:46.892Z,2.61
2019-03-11T13:38:54.812Z,2.07
2019-03-11T13:44:02.425Z,2.42
2019-03-11T13:49:10.104Z,2.14
2019-03-11T13:54:17.804Z,2.04
2019-03-11T13:59:25.476Z,2.33
2019-03-11T14:04:33.233Z,1.96
2019-03-11T14:09:40.912Z,2.15
2019-03-11T14:14:48.589Z,2.61
2019-03-11T14:19:56.280Z,2.34
2019-03-11T14:25:03.972Z,1.88
2019-03-11T14:30:11.700Z,2.49
2019-03-11T14:35:19.471Z,2.97
2019-03-11T14:40:27.302Z,2.13
2019-03-11T14:45:34.969Z,2.02
2019-03-11T14:50:42.661Z,1.55
2019-03-11T14:55:50.344Z,2.30
2019-03-11T15:00:58.031Z,2.30
2019-03-11T15:06:05.997Z,2.71
2019-03-11T15:11:13.671Z,2.42
2019-03-11T15:16:21.728Z,2.35
2019-03-11T15:21:29.325Z,2.37
2019-03-11T15:26:36.991Z,2.49
2019-03-11T15:31:44.627Z,2.34
2019-03-11T15:36:52.288Z,2.49
2019-03-11T15:41:59.980Z,2.89
2019-03-11T15:47:07.653Z,2.02
2019-03-11T15:52:15.396Z,2.45
2019-03-11T15:57:23.083Z,2.12
2019-03-11T16:02:30.803Z,1.92
2019-03-11T16:07:38.479Z,2.35
2019-03-11T16:12:46.146Z,2.19
2019-03-11T16:17:53.812Z,2.09
2019-03-11T16:23:01.428Z,2.42
2019-03-11T16:28:09.092Z,2.46
2019-03-11T16:33:16.799Z,2.38
2019-03-11T16:38:24.407Z,2.30
2019-03-11T16:43:32.023Z,2.51
2019-03-11T16:48:39.661Z,1.82
2019-03-11T16:53:47.330Z,2.23
2019-03-11T16:58:54.960Z,2.17
2019-03-11T17:04:02.609Z,2.02
2019-03-11T17:09:10.304Z,2.06
2019-03-11T17:14:17.933Z,1.90
2019-03-11T17:19:25.607Z,2.12
2019-03-11T17:24:33.300Z,2.40
2019-03-11T17:29:40.984Z,1.98
2019-03-11T17:34:48.598Z,2.63
2019-03-11T17:39:56.218Z,2.33
2019-03-11T17:45:03.848Z,2.95
2019-03-11T17:50:11.461Z,2.32
2019-03-11T17:55:19.112Z,2.63
2019-03-11T18:00:26.792Z,2.41
2019-03-11T18:05:34.437Z,2.62
2019-03-11T18:10:42.132Z,2.29
2019-03-11T18:15:49.764Z,2.41
2019-03-11T18:20:59.655Z,2.65
2019-03-11T18:26:04.726Z,2.61
2019-03-11T18:31:12.477Z,2.19
2019-03-11T18:36:20.089Z,2.86
2019-03-11T18:41:27.776Z,2.77
2019-03-11T18:46:35.506Z,2.14
2019-03-11T18:51:43.242Z,2.03
2019-03-11T18:56:50.895Z,2.44
2019-03-11T19:01:58.615Z,3.22
2019-03-11T19:07:06.327Z,3.43
2019-03-11T19:12:14.115Z,2.85
2019-03-11T19:17:21.746Z,2.88
2019-03-11T19:22:29.466Z,4.19
2019-03-11T19:27:37.157Z,3.57
2019-03-11T19:32:44.769Z,3.55
2019-03-11T19:37:52.488Z,4.89
2019-03-11T19:43:00.094Z,3.73
2019-03-11T19:48:07.736Z,4.08
2019-03-11T19:53:15.404Z,4.55
2019-03-11T19:58:23.010Z,4.03
2019-03-11T20:03:30.962Z,4.49
2019-03-11T20:08:38.260Z,4.56
2019-03-11T20:13:46.061Z,4.33
2019-03-11T20:18:53.724Z,4.38
2019-03-11T20:24:01.348Z,4.29
2019-03-11T20:29:08.958Z,4.89
2019-03-11T20:34:16.670Z,5.43
2019-03-11T20:39:24.325Z,5.55
2019-03-11T20:44:32.040Z,5.84
2019-03-11T20:49:39.704Z,5.77
2019-03-11T20:54:47.439Z,6.11
2019-03-11T20:59:55.042Z,6.26
2019-03-11T21:05:02.789Z,6.40
2019-03-11T21:10:10.482Z,6.10
2019-03-11T21:15:18.122Z,6.76
2019-03-11T21:20:25.760Z,7.01
2019-03-11T21:25:33.523Z,6.97
2019-03-11T21:30:41.150Z,7.04
2019-03-11T21:35:48.926Z,8.46
2019-03-11T21:40:56.714Z,7.14
2019-03-11T21:46:04.456Z,7.51
2019-03-11T21:51:12.041Z,6.32
2019-03-11T21:56:19.815Z,6.52
2019-03-11T22:01:27.722Z,6.62
2019-03-11T22:06:35.397Z,7.53
2019-03-11T22:11:43.070Z,7.18
2019-03-11T22:16:50.948Z,8.41
2019-03-11T22:21:58.682Z,7.45
2019-03-11T22:27:06.677Z,7.55
2019-03-11T22:32:14.342Z,7.85
2019-03-11T22:37:22.114Z,8.11
2019-03-11T22:42:29.776Z,8.62
2019-03-11T22:47:37.473Z,7.74
2019-03-11T22:52:45.152Z,9.56
2019-03-11T22:57:52.836Z,8.51
2019-03-11T23:03:00.585Z,8.66
2019-03-11T23:08:08.258Z,8.51
2019-03-11T23:13:16.060Z,9.18
2019-03-11T23:18:23.694Z,8.95
2019-03-11T23:23:31.504Z,8.51
2019-03-11T23:28:39.193Z,10.35
2019-03-11T23:33:46.908Z,10.39
2019-03-11T23:38:54.593Z,9.57
2019-03-11T23:44:02.269Z,9.19
2019-03-11T23:49:10.077Z,9.37
2019-03-11T23:54:17.756Z,10.49
2019-03-11T23:59:25.644Z,8.64
